createdAt,value
2022-09-04T00:02:25.879Z,14.20
2022-09-04T00:05:20.245Z,14.20
2022-09-04T00:08:11.963Z,14.10
2022-09-04T00:11:04.786Z,14.10
2022-09-04T00:13:38.189Z,14.00
2022-09-04T00:16:17.134Z,14.00
2022-09-04T00:18:57.137Z,13.90
2022-09-04T00:21:34.833Z,13.90
2022-09-04T00:24:25.457Z,14.00
2022-09-04T00:27:16.219Z,14.00
2022-09-04T00:29:49.906Z,14.00
2022-09-04T00:32:34.844Z,14.10
2022-09-04T00:35:15.275Z,14.10
2022-09-04T00:38:01.397Z,14.00
2022-09-04T00:40:46.903Z,14.10
2022-09-04T00:43:52.556Z,14.10
2022-09-04T00:46:41.637Z,14.00
2022-09-04T00:49:41.976Z,13.90
2022-09-04T00:52:45.742Z,13.90
2022-09-04T00:55:36.623Z,13.80
2022-09-04T00:58:26.691Z,13.80
2022-09-04T01:00:57.545Z,13.70
2022-09-04T01:03:51.740Z,13.80
2022-09-04T01:06:30.047Z,13.70
2022-09-04T01:09:24.726Z,13.70
2022-09-04T01:11:59.247Z,13.80
2022-09-04T01:14:38.349Z,13.70
2022-09-04T01:17:44.714Z,13.70
2022-09-04T01:20:23.227Z,13.70
2022-09-04T01:23:24.110Z,13.70
2022-09-04T01:25:57.347Z,13.60
2022-09-04T01:29:07.251Z,13.60
2022-09-04T01:31:52.907Z,13.60
2022-09-04T01:34:39.890Z,13.60
2022-09-04T01:37:43.920Z,13.70
2022-09-04T01:40:36.912Z,13.70
2022-09-04T01:43:03.669Z,13.60
2022-09-04T01:45:52.871Z,13.60
2022-09-04T01:48:49.837Z,13.60
2022-09-04T01:51:27.725Z,13.60
2022-09-04T01:54:11.875Z,13.60
2022-09-04T01:56:50.849Z,13.60
2022-09-04T01:59:20.303Z,13.60
2022-09-04T02:02:06.956Z,13.60
2022-09-04T02:05:10.013Z,13.60
2022-09-04T02:07:46.683Z,13.60
2022-09-04T02:10:31.595Z,13.50
2022-09-04T02:13:15.718Z,13.50
2022-09-04T02:16:06.031Z,13.50
2022-09-04T02:18:44.321Z,13.50
2022-09-04T02:21:14.507Z,13.50
2022-09-04T02:23:51.531Z,13.40
2022-09-04T02:26:30.758Z,13.40
2022-09-04T02:29:23.096Z,13.40
2022-09-04T02:32:18.484Z,13.40
2022-09-04T02:34:57.192Z,13.40
2022-09-04T02:37:37.655Z,13.50
2022-09-04T02:40:22.126Z,13.50
2022-09-04T02:43:22.207Z,13.50
2022-09-04T02:45:52.574Z,13.50
2022-09-04T02:48:31.205Z,13.60
2022-09-04T02:51:34.537Z,13.60
2022-09-04T02:54:12.442Z,13.70
2022-09-04T02:56:52.317Z,13.80
2022-09-04T02:59:53.663Z,13.90
2022-09-04T03:02:47.338Z,13.90
2022-09-04T03:05:21.024Z,14.00
2022-09-04T03:08:08.262Z,14.00
2022-09-04T03:10:59.183Z,14.10
2022-09-04T03:13:38.899Z,14.10
2022-09-04T03:16:35.164Z,14.20
2022-09-04T03:19:10.375Z,14.10
2022-09-04T03:21:53.184Z,14.20
2022-09-04T03:24:26.230Z,14.20
2022-09-04T03:27:01.531Z,14.10
2022-09-04T03:29:37.999Z,14.20
2022-09-04T03:32:26.428Z,14.20
2022-09-04T03:35:14.534Z,14.20
2022-09-04T03:38:17.289Z,14.20
2022-09-04T03:40:57.606Z,14.20
2022-09-04T03:44:04.565Z,14.10
2022-09-04T03:47:02.750Z,14.10
2022-09-04T03:50:01.895Z,14.10
2022-09-04T03:52:40.219Z,14.10
2022-09-04T03:55:25.721Z,14.20
2022-09-04T03:58:21.487Z,14.20
2022-09-04T04:01:04.094Z,14.20
2022-09-04T04:03:31.321Z,14.20
2022-09-04T04:06:19.502Z,14.30
2022-09-04T04:09:04.294Z,14.30
2022-09-04T04:11:49.483Z,14.30
2022-09-04T04:14:22.301Z,14.40
2022-09-04T04:17:33.975Z,14.40
2022-09-04T04:20:22.115Z,14.50
2022-09-04T04:23:34.011Z,14.60
2022-09-04T04:26:03.647Z,14.70
2022-09-04T04:28:39.029Z,14.70
2022-09-04T04:31:18.948Z,14.80
2022-09-04T04:34:22.459Z,14.80
2022-09-04T04:37:00.711Z,14.80
2022-09-04T04:39:44.628Z,14.90
2022-09-04T04:42:45.669Z,14.90
2022-09-04T04:45:36.913Z,15.00
2022-09-04T04:48:15.842Z,15.00
2022-09-04T04:51:05.234Z,15.00
2022-09-04T04:53:55.428Z,15.00
2022-09-04T04:56:31.397Z,15.00
2022-09-04T04:59:31.090Z,15.00
2022-09-04T05:02:51.573Z,15.00
2022-09-04T05:05:40.655Z,15.00
2022-09-04T05:08:15.440Z,15.10
2022-09-04T05:10:51.618Z,15.10
2022-09-04T05:13:33.096Z,15.10
2022-09-04T05:16:25.918Z,15.10
2022-09-04T05:19:01.415Z,15.20
2022-09-04T05:22:04.243Z,15.20
2022-09-04T05:24:33.781Z,15.20
2022-09-04T05:27:20.072Z,15.30
2022-09-04T05:30:16.480Z,15.30
2022-09-04T05:33:18.007Z,15.40
2022-09-04T05:36:17.017Z,15.40
2022-09-04T05:39:13.100Z,15.40
2022-09-04T05:41:50.278Z,15.40
2022-09-04T05:44:46.978Z,15.50
2022-09-04T05:47:27.500Z,15.50
2022-09-04T05:50:26.822Z,15.60
2022-09-04T05:53:18.192Z,15.60
2022-09-04T05:56:18.414Z,15.60
2022-09-04T05:58:50.579Z,15.70
2022-09-04T06:01:52.539Z,15.80
2022-09-04T06:04:59.243Z,15.80
2022-09-04T06:08:07.400Z,15.90
2022-09-04T06:10:42.427Z,16.10
2022-09-04T06:13:28.868Z,16.10
2022-09-04T06:16:29.903Z,16.20
2022-09-04T06:19:35.267Z,16.20
2022-09-04T06:22:12.790Z,16.40
2022-09-04T06:24:58.065Z,16.50
2022-09-04T06:27:52.562Z,16.50
2022-09-04T06:30:20.894Z,16.60
2022-09-04T06:33:27.327Z,16.60
2022-09-04T06:36:21.632Z,16.70
2022-09-04T06:39:00.509Z,16.80
2022-09-04T06:41:30.311Z,16.90
2022-09-04T06:44:35.720Z,16.90
2022-09-04T06:47:19.498Z,17.00
2022-09-04T06:50:13.739Z,17.10
2022-09-04T06:53:19.414Z,17.20
2022-09-04T06:56:14.392Z,17.30
2022-09-04T06:59:09.953Z,17.40
2022-09-04T07:01:44.338Z,17.50
2022-09-04T07:04:38.590Z,17.50
2022-09-04T07:07:19.912Z,17.50
2022-09-04T07:10:01.075Z,17.60
2022-09-04T07:12:52.821Z,17.60
2022-09-04T07:15:31.656Z,17.70
2022-09-04T07:18:39.802Z,17.80
2022-09-04T07:21:58.900Z,17.90
2022-09-04T07:24:52.371Z,18.00
2022-09-04T07:27:39.000Z,18.10
2022-09-04T07:30:17.754Z,18.30
2022-09-04T07:32:53.695Z,18.40
2022-09-04T07:35:42.935Z,18.50
2022-09-04T07:38:28.606Z,18.50
2022-09-04T07:41:19.901Z,18.70
2022-09-04T07:44:12.070Z,18.80
2022-09-04T07:47:13.372Z,19.00
2022-09-04T07:49:49.210Z,19.10
2022-09-04T07:52:46.406Z,19.30
2022-09-04T07:55:40.471Z,19.40
2022-09-04T07:58:22.131Z,19.50
2022-09-04T08:01:06.915Z,19.60
2022-09-04T08:04:06.756Z,19.60
2022-09-04T08:06:48.564Z,19.50
2022-09-04T08:09:41.836Z,19.50
2022-09-04T08:12:08.628Z,19.50
2022-09-04T08:14:50.907Z,19.30
2022-09-04T08:17:51.418Z,19.20
2022-09-04T08:20:52.752Z,19.30
2022-09-04T08:23:42.730Z,19.40
2022-09-04T08:26:28.347Z,19.40
2022-09-04T08:29:13.941Z,19.50
2022-09-04T08:31:55.356Z,19.60
2022-09-04T08:34:57.016Z,19.70
2022-09-04T08:37:34.650Z,19.70
2022-09-04T08:40:31.533Z,19.80
2022-09-04T08:43:24.818Z,19.90
2022-09-04T08:46:30.007Z,20.00
2022-09-04T08:49:14.983Z,20.20
2022-09-04T08:52:11.321Z,20.30
2022-09-04T08:54:44.100Z,20.30
2022-09-04T08:57:52.310Z,20.40
2022-09-04T09:00:37.745Z,20.50
2022-09-04T09:03:13.481Z,20.70
2022-09-04T09:06:13.269Z,20.80
2022-09-04T09:09:01.655Z,21.00
2022-09-04T09:11:57.503Z,21.10
2022-09-04T09:14:50.280Z,21.10
2022-09-04T09:17:39.703Z,20.90
2022-09-04T09:20:30.064Z,20.80
2022-09-04T09:23:19.795Z,21.00
2022-09-04T09:25:49.873Z,20.70
2022-09-04T09:28:31.743Z,20.70
2022-09-04T09:31:05.461Z,20.70
2022-09-04T09:33:50.883Z,20.80
2022-09-04T09:36:35.462Z,20.90
2022-09-04T09:39:34.219Z,21.10
2022-09-04T09:42:19.860Z,21.00
2022-09-04T09:44:56.200Z,20.90
2022-09-04T09:47:41.386Z,20.90
2022-09-04T09:50:14.560Z,20.90
2022-09-04T09:53:10.506Z,21.10
2022-09-04T09:56:15.608Z,21.10
2022-09-04T09:59:01.299Z,21.40
2022-09-04T10:01:33.872Z,21.60
2022-09-04T10:04:40.075Z,21.60
2022-09-04T10:07:29.803Z,22.00
2022-09-04T10:10:21.476Z,22.50
2022-09-04T10:12:50.933Z,23.00
2022-09-04T10:15:37.567Z,23.60
2022-09-04T10:18:35.703Z,24.30
2022-09-04T10:21:46.289Z,26.00
2022-09-04T10:24:31.333Z,26.10
2022-09-04T10:27:15.484Z,27.10
2022-09-04T10:30:05.479Z,27.60
2022-09-04T10:32:32.935Z,28.10
2022-09-04T10:35:21.995Z,28.60
2022-09-04T10:38:17.120Z,29.40
2022-09-04T10:41:05.942Z,30.80
2022-09-04T10:44:05.332Z,31.80
2022-09-04T10:46:56.886Z,32.50
2022-09-04T10:49:56.152Z,33.70
2022-09-04T10:52:30.979Z,34.70
2022-09-04T10:55:20.536Z,34.40
2022-09-04T10:58:05.479Z,34.00
2022-09-04T11:00:55.892Z,34.40
2022-09-04T11:03:38.282Z,34.70
2022-09-04T11:06:25.932Z,34.90
2022-09-04T11:09:32.963Z,35.50
2022-09-04T11:12:33.614Z,36.00
2022-09-04T11:15:12.574Z,36.10
2022-09-04T11:18:04.291Z,36.10
2022-09-04T11:20:59.430Z,36.60
2022-09-04T11:23:38.506Z,37.10
2022-09-04T11:26:33.351Z,36.40
2022-09-04T11:29:02.874Z,37.40
2022-09-04T11:32:21.158Z,37.80
2022-09-04T11:35:09.988Z,38.10
2022-09-04T11:37:59.187Z,38.40
2022-09-04T11:41:10.636Z,38.70
2022-09-04T11:43:52.663Z,39.10
2022-09-04T11:46:47.398Z,38.80
2022-09-04T11:49:40.920Z,39.30
2022-09-04T11:52:16.360Z,39.20
2022-09-04T11:55:22.923Z,39.80
2022-09-04T11:58:18.455Z,39.10
2022-09-04T12:01:02.431Z,39.50
2022-09-04T12:03:38.552Z,39.30
2022-09-04T12:06:23.261Z,39.80
2022-09-04T12:09:05.493Z,39.90
2022-09-04T12:12:07.373Z,38.90
2022-09-04T12:14:49.551Z,39.30
2022-09-04T12:17:17.300Z,39.80
2022-09-04T12:20:07.888Z,39.90
2022-09-04T12:23:12.975Z,40.60
2022-09-04T12:26:14.136Z,40.40
2022-09-04T12:28:58.559Z,39.20
2022-09-04T12:32:02.528Z,39.30
2022-09-04T12:34:56.789Z,39.80
2022-09-04T12:37:50.837Z,40.50
2022-09-04T12:40:26.664Z,40.00
2022-09-04T12:43:31.959Z,40.30
2022-09-04T12:46:14.400Z,40.60
2022-09-04T12:49:05.200Z,40.30
2022-09-04T12:51:53.697Z,40.80
2022-09-04T12:54:31.401Z,41.00
2022-09-04T12:57:22.680Z,41.20
2022-09-04T13:00:12.403Z,41.30
2022-09-04T13:03:17.338Z,41.50
2022-09-04T13:06:04.111Z,41.90
2022-09-04T13:08:55.203Z,42.40
2022-09-04T13:11:44.201Z,42.90
2022-09-04T13:14:44.934Z,42.80
2022-09-04T13:17:25.929Z,42.30
2022-09-04T13:20:05.871Z,42.50
2022-09-04T13:22:57.894Z,43.20
2022-09-04T13:25:53.220Z,43.10
2022-09-04T13:28:20.041Z,42.80
2022-09-04T13:31:17.381Z,43.00
2022-09-04T13:34:01.327Z,42.60
2022-09-04T13:36:35.459Z,42.80
2022-09-04T13:39:17.976Z,42.80
2022-09-04T13:42:03.405Z,42.70
2022-09-04T13:44:58.135Z,42.00
2022-09-04T13:47:32.207Z,41.20
2022-09-04T13:50:10.651Z,41.30
2022-09-04T13:53:06.934Z,41.70
2022-09-04T13:55:38.714Z,41.80
2022-09-04T13:58:20.425Z,41.10
2022-09-04T14:00:51.874Z,41.20
2022-09-04T14:03:48.630Z,41.70
2022-09-04T14:06:19.323Z,43.10
2022-09-04T14:08:59.690Z,43.70
2022-09-04T14:11:54.150Z,43.20
2022-09-04T14:14:48.564Z,42.60
2022-09-04T14:17:26.682Z,43.40
2022-09-04T14:20:03.936Z,43.70
2022-09-04T14:22:52.129Z,43.20
2022-09-04T14:25:29.921Z,41.00
2022-09-04T14:28:37.976Z,40.80
2022-09-04T14:31:27.670Z,40.80
2022-09-04T14:34:17.438Z,40.80
2022-09-04T14:36:56.712Z,41.40
2022-09-04T14:39:52.909Z,42.40
2022-09-04T14:43:05.261Z,41.50
2022-09-04T14:46:11.549Z,41.10
2022-09-04T14:48:48.212Z,40.60
2022-09-04T14:51:30.870Z,40.70
2022-09-04T14:53:59.243Z,41.60
2022-09-04T14:56:41.928Z,42.00
2022-09-04T14:59:31.657Z,42.50
2022-09-04T15:02:14.807Z,42.10
2022-09-04T15:05:03.518Z,41.70
2022-09-04T15:07:42.601Z,41.70
2022-09-04T15:10:18.258Z,41.50
2022-09-04T15:13:11.632Z,42.10
2022-09-04T15:15:54.935Z,42.60
2022-09-04T15:18:43.699Z,42.30
2022-09-04T15:21:27.594Z,41.40
2022-09-04T15:24:08.474Z,41.20
2022-09-04T15:26:55.647Z,41.00
2022-09-04T15:29:54.708Z,41.60
2022-09-04T15:32:25.712Z,41.80
2022-09-04T15:35:23.567Z,41.80
2022-09-04T15:38:04.919Z,41.50
2022-09-04T15:40:59.517Z,41.60
2022-09-04T15:43:43.013Z,41.50
2022-09-04T15:46:16.002Z,41.70
2022-09-04T15:49:30.258Z,41.40
2022-09-04T15:52:17.301Z,40.40
2022-09-04T15:54:53.030Z,39.50
2022-09-04T15:57:29.367Z,39.10
2022-09-04T16:00:03.102Z,39.50
2022-09-04T16:02:59.063Z,40.10
2022-09-04T16:05:49.065Z,39.70
2022-09-04T16:08:23.586Z,39.70
2022-09-04T16:11:02.372Z,39.30
2022-09-04T16:13:58.059Z,38.90
2022-09-04T16:16:34.006Z,38.90
2022-09-04T16:19:06.029Z,39.10
2022-09-04T16:22:01.970Z,37.60
2022-09-04T16:24:47.464Z,36.90
2022-09-04T16:27:18.403Z,36.60
2022-09-04T16:29:57.737Z,36.50
2022-09-04T16:32:30.035Z,36.90
2022-09-04T16:35:30.202Z,37.00
2022-09-04T16:39:00.067Z,36.40
2022-09-04T16:41:48.021Z,35.90
2022-09-04T16:44:22.076Z,34.90
2022-09-04T16:47:06.013Z,34.40
2022-09-04T16:49:57.650Z,34.60
2022-09-04T16:52:36.700Z,35.10
2022-09-04T16:55:27.059Z,34.90
2022-09-04T16:58:02.234Z,34.90
2022-09-04T17:00:51.596Z,34.70
2022-09-04T17:03:24.733Z,34.20
2022-09-04T17:05:59.494Z,33.40
2022-09-04T17:08:28.698Z,32.70
2022-09-04T17:11:05.446Z,32.20
2022-09-04T17:13:48.335Z,31.90
2022-09-04T17:16:21.827Z,31.90
2022-09-04T17:18:53.491Z,32.00
2022-09-04T17:27:46.085Z,31.80
2022-09-04T17:29:17.136Z,31.20
2022-09-04T17:29:17.544Z,30.60
2022-09-04T17:30:40.545Z,30.00
2022-09-04T17:38:49.256Z,29.40
2022-09-04T17:40:38.725Z,28.40
2022-09-04T17:40:41.350Z,28.80
2022-09-04T17:42:23.302Z,28.00
2022-09-04T17:45:22.610Z,27.60
2022-09-04T17:48:08.678Z,27.30
2022-09-04T17:50:59.634Z,27.00
2022-09-04T17:53:34.159Z,26.70
2022-09-04T17:56:27.772Z,26.50
2022-09-04T17:59:24.524Z,26.30
2022-09-04T18:01:51.749Z,26.00
2022-09-04T18:04:40.270Z,25.90
2022-09-04T18:07:28.718Z,25.60
2022-09-04T18:10:32.692Z,25.40
2022-09-04T18:13:36.756Z,25.20
2022-09-04T18:16:19.066Z,25.00
2022-09-04T18:19:19.526Z,24.80
2022-09-04T18:22:45.933Z,24.60
2022-09-04T18:25:46.231Z,24.40
2022-09-04T18:28:40.323Z,24.20
2022-09-04T18:37:09.478Z,24.10
2022-09-04T18:37:27.098Z,23.90
2022-09-04T18:37:50.605Z,23.80
2022-09-04T18:40:36.059Z,23.50
2022-09-04T18:50:30.998Z,23.40
2022-09-04T18:50:31.482Z,23.20
2022-09-04T18:50:36.654Z,23.00
2022-09-04T18:52:30.368Z,22.90
2022-09-04T18:55:09.347Z,22.80
2022-09-04T18:58:09.949Z,22.60
2022-09-04T19:00:55.634Z,22.50
2022-09-04T19:03:27.422Z,22.30
2022-09-04T19:06:04.709Z,22.20
2022-09-04T19:08:39.900Z,22.00
2022-09-04T19:11:21.253Z,21.90
2022-09-04T19:14:10.899Z,21.80
2022-09-04T19:16:47.057Z,21.60
2022-09-04T19:19:34.809Z,21.50
2022-09-04T19:22:05.288Z,21.40
2022-09-04T19:24:46.899Z,21.20
2022-09-04T19:27:38.462Z,21.10
2022-09-04T19:30:19.734Z,21.10
2022-09-04T19:32:59.772Z,21.00
2022-09-04T19:35:49.890Z,20.90
2022-09-04T19:45:57.004Z,20.90
2022-09-04T19:46:05.458Z,20.80
2022-09-04T19:46:18.860Z,20.70
2022-09-04T19:47:43.210Z,20.60
2022-09-04T19:53:21.884Z,20.50
2022-09-04T19:53:42.334Z,20.30
2022-09-04T19:56:28.019Z,20.20
2022-09-04T19:59:16.430Z,20.10
2022-09-04T20:02:02.803Z,20.00
2022-09-04T20:04:43.582Z,19.90
2022-09-04T20:07:20.704Z,19.80
2022-09-04T20:09:54.861Z,19.70
2022-09-04T20:12:36.719Z,19.60
2022-09-04T20:15:22.271Z,19.50
2022-09-04T20:18:11.772Z,19.40
2022-09-04T20:20:54.769Z,19.40
2022-09-04T20:23:40.219Z,19.40
2022-09-04T20:26:45.260Z,19.30
2022-09-04T20:29:20.884Z,19.20
2022-09-04T20:31:56.060Z,19.10
2022-09-04T20:34:38.821Z,19.00
2022-09-04T20:37:37.485Z,19.00
2022-09-04T20:40:21.993Z,18.90
2022-09-04T20:43:02.759Z,18.90
2022-09-04T20:47:27.950Z,18.80
2022-09-04T20:52:52.043Z,18.80
2022-09-04T20:53:00.570Z,18.70
2022-09-04T20:54:37.359Z,18.60
2022-09-04T20:59:29.533Z,18.60
2022-09-04T21:03:19.147Z,18.60
2022-09-04T21:03:27.953Z,18.60
2022-09-04T21:06:07.273Z,18.50
2022-09-04T21:09:05.312Z,18.50
2022-09-04T21:11:41.928Z,18.50
2022-09-04T21:14:16.696Z,18.50
2022-09-04T21:17:33.369Z,18.40
2022-09-04T21:20:50.325Z,18.40
2022-09-04T21:24:21.880Z,18.30
2022-09-04T21:27:10.649Z,18.20
2022-09-04T21:29:59.306Z,18.10
2022-09-04T21:32:40.230Z,18.10
2022-09-04T21:35:25.078Z,18.00
2022-09-04T21:38:14.539Z,17.90
2022-09-04T21:40:58.952Z,17.90
2022-09-04T21:43:40.335Z,17.80
2022-09-04T21:46:35.718Z,17.70
2022-09-04T21:49:29.591Z,17.60
2022-09-04T21:52:08.191Z,17.60
2022-09-04T21:58:58.600Z,17.50
2022-09-04T22:02:28.188Z,17.40
2022-09-04T22:02:37.306Z,17.30
2022-09-04T22:03:34.609Z,17.30
2022-09-04T22:06:04.482Z,17.30
2022-09-04T22:13:37.958Z,17.30
2022-09-04T22:13:45.995Z,17.30
2022-09-04T22:15:06.536Z,17.30
2022-09-04T22:17:53.526Z,17.20
2022-09-04T22:20:43.550Z,17.20
2022-09-04T22:23:38.215Z,17.20
2022-09-04T22:26:26.915Z,17.20
2022-09-04T22:29:14.970Z,17.20
2022-09-04T22:32:20.210Z,17.20
2022-09-04T22:35:25.244Z,17.10
2022-09-04T22:38:26.364Z,17.00
2022-09-04T22:41:02.065Z,17.00
2022-09-04T22:43:46.638Z,16.90
2022-09-04T22:46:38.303Z,16.90
2022-09-04T22:49:24.040Z,16.90
2022-09-04T22:52:15.117Z,16.90
2022-09-04T22:54:50.857Z,16.90
2022-09-04T22:57:44.704Z,16.90
2022-09-04T23:00:21.070Z,16.90
2022-09-04T23:03:09.264Z,16.80
2022-09-04T23:05:48.975Z,16.90
2022-09-04T23:13:51.606Z,16.80
2022-09-04T23:14:02.501Z,16.90
2022-09-04T23:15:28.970Z,16.80
2022-09-04T23:19:37.792Z,16.70
2022-09-04T23:26:41.493Z,16.70
2022-09-04T23:26:45.502Z,16.70
2022-09-04T23:27:56.948Z,16.70
2022-09-04T23:30:26.527Z,16.70
2022-09-04T23:33:32.999Z,16.70
2022-09-04T23:36:18.080Z,16.60
2022-09-04T23:39:24.016Z,16.60
2022-09-04T23:42:11.553Z,16.60
2022-09-04T23:44:57.032Z,16.60
2022-09-04T23:47:48.214Z,16.50
2022-09-04T23:50:54.706Z,16.50
2022-09-04T23:53:43.056Z,16.50
2022-09-04T23:56:26.368Z,16.40
2022-09-04T23:59:21.331Z,16.30
